Time;durP1;ratioP1;P1;durP2;ratioP2;P2;SDS_P1;SDS_P2;PMS_P1;PMS_P2;Temp;Humidity;BMP_temperature;BMP_pressure;BME280_temperature;BME280_humidity;BME280_pressure;Samples;Min_cycle;Max_cycle;Signal;HPM_P1;HPM_P2
2021/05/04 00:01:24;;;;;;;6.40;2.20;;;10.60;99.90;;;;;;5035042;28;20048;-72
2021/05/04 00:04:27;;;;;;;13.45;2.45;;;10.40;99.90;;;;;;5052137;28;20056;-72
2021/05/04 00:07:32;;;;;;;7.00;2.80;;;10.40;99.90;;;;;;5051563;28;20048;-72
2021/05/04 00:10:37;;;;;;;4.50;2.70;;;10.40;99.90;;;;;;5051218;28;20043;-72
2021/05/04 00:13:42;;;;;;;7.72;2.53;;;10.40;99.90;;;;;;5051445;28;20044;-72
2021/05/04 00:16:47;;;;;;;5.32;2.63;;;10.30;99.90;;;;;;5051398;28;20502;-72
2021/05/04 00:19:51;;;;;;;4.55;2.60;;;10.30;99.90;;;;;;5051892;28;20048;-72
2021/05/04 00:22:55;;;;;;;4.78;2.50;;;10.30;99.90;;;;;;5050194;28;20040;-71
2021/05/04 00:25:59;;;;;;;5.60;2.80;;;10.30;99.90;;;;;;5050704;28;20043;-72
2021/05/04 00:29:04;;;;;;;7.72;2.63;;;10.30;99.90;;;;;;5050471;28;20068;-72
2021/05/04 00:32:08;;;;;;;7.35;2.63;;;10.30;99.90;;;;;;5049717;28;20040;-72
2021/05/04 00:35:12;;;;;;;3.85;1.90;;;10.30;99.90;;;;;;5042198;28;20391;-72
2021/05/04 00:38:16;;;;;;;6.22;2.08;;;10.30;99.90;;;;;;5050842;28;20043;-72
2021/05/04 00:41:20;;;;;;;4.40;2.40;;;10.20;99.90;;;;;;5050042;28;20048;-72
2021/05/04 00:44:24;;;;;;;7.63;2.50;;;10.20;99.90;;;;;;5049701;28;20048;-71
2021/05/04 00:47:28;;;;;;;5.00;2.15;;;10.20;99.90;;;;;;5050678;28;20499;-72
2021/05/04 00:50:32;;;;;;;4.60;2.22;;;10.10;99.90;;;;;;5040981;28;20044;-72
2021/05/04 00:53:37;;;;;;;4.88;2.30;;;10.00;99.90;;;;;;5050649;28;20048;-72
2021/05/04 00:56:41;;;;;;;7.90;2.80;;;10.00;99.90;;;;;;5050412;28;20039;-72
2021/05/04 00:59:46;;;;;;;7.72;2.50;;;9.90;99.90;;;;;;5028948;28;20048;-72
2021/05/04 01:02:51;;;;;;;8.25;2.50;;;9.80;99.90;;;;;;5030669;28;20041;-72
2021/05/04 01:05:55;;;;;;;8.48;2.70;;;9.80;99.90;;;;;;5030953;28;20038;-72
2021/05/04 01:08:59;;;;;;;4.70;2.50;;;9.70;99.90;;;;;;5032713;28;20049;-71
2021/05/04 01:12:04;;;;;;;3.17;2.35;;;9.80;99.90;;;;;;5050402;28;20476;-72
2021/05/04 01:15:10;;;;;;;5.03;2.40;;;9.70;99.90;;;;;;5049905;28;20037;-72
2021/05/04 01:18:15;;;;;;;13.07;3.35;;;9.70;99.90;;;;;;5050563;28;20044;-72
2021/05/04 01:21:19;;;;;;;5.63;2.45;;;9.60;99.90;;;;;;5049919;28;20059;-71
2021/05/04 01:24:24;;;;;;;3.85;2.25;;;9.50;99.90;;;;;;5050120;28;20472;-71
2021/05/04 01:27:28;;;;;;;7.60;2.63;;;9.50;99.90;;;;;;5050322;28;20040;-72
2021/05/04 01:30:32;;;;;;;4.30;2.38;;;9.50;99.90;;;;;;5040809;28;20045;-71
2021/05/04 01:33:36;;;;;;;7.47;2.90;;;9.40;99.90;;;;;;5037210;28;20484;-71
2021/05/04 01:36:40;;;;;;;7.30;3.03;;;9.30;99.90;;;;;;5030917;28;20042;-71
2021/05/04 01:39:47;;;;;;;7.22;2.88;;;9.30;99.90;;;;;;5045309;28;20042;-72
2021/05/04 01:42:51;;;;;;;10.00;2.55;;;9.30;99.90;;;;;;5043665;28;20049;-71
2021/05/04 01:46:07;;;;;;;6.80;3.50;;;9.30;99.90;;;;;;5049200;28;20048;-72
2021/05/04 01:49:11;;;;;;;8.40;2.55;;;9.30;99.90;;;;;;5050677;28;20045;-72
2021/05/04 01:52:15;;;;;;;4.57;2.35;;;9.30;99.90;;;;;;5049965;28;20037;-71
2021/05/04 01:55:20;;;;;;;6.85;2.38;;;9.30;99.90;;;;;;5045139;28;20480;-71
2021/05/04 01:58:25;;;;;;;5.90;2.40;;;9.30;99.90;;;;;;5050661;28;20049;-71
2021/05/04 02:01:29;;;;;;;4.63;2.20;;;9.20;99.90;;;;;;5044830;28;20037;-71
2021/05/04 02:04:33;;;;;;;5.40;2.45;;;9.20;99.90;;;;;;5054043;28;20029;-72
2021/05/04 02:07:38;;;;;;;7.80;2.42;;;9.20;99.90;;;;;;5054389;28;20041;-72
2021/05/04 02:10:42;;;;;;;6.03;2.90;;;9.20;99.90;;;;;;5053548;28;20045;-71
2021/05/04 02:13:46;;;;;;;3.92;2.25;;;9.20;99.90;;;;;;5054167;28;20401;-71
2021/05/04 02:16:50;;;;;;;5.13;2.63;;;9.20;99.90;;;;;;5053635;28;20041;-72
2021/05/04 02:19:55;;;;;;;2.67;1.55;;;9.20;99.90;;;;;;5041391;28;20032;-71
2021/05/04 02:23:09;;;;;;;7.57;2.65;;;9.20;99.90;;;;;;5052466;28;20041;-72
2021/05/04 02:26:16;;;;;;;5.03;2.63;;;9.10;99.90;;;;;;5053831;28;20033;-72
2021/05/04 02:29:20;;;;;;;7.70;2.88;;;9.00;99.90;;;;;;5044009;28;20049;-71
2021/05/04 02:32:24;;;;;;;8.20;3.72;;;8.70;99.90;;;;;;5053197;28;20037;-71
2021/05/04 02:35:28;;;;;;;12.82;4.70;;;8.50;99.90;;;;;;5051952;28;20045;-70
2021/05/04 02:38:34;;;;;;;7.55;3.47;;;8.50;99.90;;;;;;5053459;28;20047;-71
2021/05/04 02:41:38;;;;;;;6.60;3.22;;;8.40;99.90;;;;;;5052065;28;20033;-71
2021/05/04 02:44:42;;;;;;;7.28;3.30;;;8.40;99.90;;;;;;5052354;28;20049;-71
2021/05/04 02:47:46;;;;;;;8.10;3.83;;;8.30;99.90;;;;;;5053398;28;20045;-71
2021/05/04 02:50:50;;;;;;;14.50;4.63;;;8.30;99.90;;;;;;5053030;28;20453;-71
2021/05/04 02:53:55;;;;;;;6.63;3.70;;;8.30;99.90;;;;;;5053099;28;20044;-71
2021/05/04 02:56:59;;;;;;;7.45;4.18;;;8.30;99.90;;;;;;5053593;28;20575;-71
2021/05/04 03:00:04;;;;;;;8.40;4.45;;;8.20;99.90;;;;;;5052233;28;20045;-71
2021/05/04 03:03:10;;;;;;;7.20;4.55;;;8.20;99.90;;;;;;5053008;28;20029;-71
2021/05/04 03:06:14;;;;;;;8.25;4.47;;;8.20;99.90;;;;;;5052602;28;20464;-71
2021/05/04 03:09:19;;;;;;;7.82;4.20;;;8.20;99.90;;;;;;5052346;28;20369;-72
2021/05/04 03:12:23;;;;;;;10.63;5.13;;;8.20;99.90;;;;;;5052153;28;20029;-71
2021/05/04 03:15:27;;;;;;;13.13;4.70;;;8.10;99.90;;;;;;5050585;28;20656;-71
2021/05/04 03:18:32;;;;;;;8.73;4.55;;;8.10;99.90;;;;;;5052686;28;20048;-71
2021/05/04 03:21:36;;;;;;;15.27;5.45;;;8.00;99.90;;;;;;5051969;28;20048;-71
2021/05/04 03:24:41;;;;;;;13.57;5.63;;;8.00;99.90;;;;;;5052154;28;20043;-71
2021/05/04 03:27:45;;;;;;;9.48;6.05;;;8.00;99.90;;;;;;5052754;28;20052;-71
2021/05/04 03:30:51;;;;;;;11.93;6.03;;;8.00;99.90;;;;;;5050184;28;20041;-71
2021/05/04 03:33:55;;;;;;;11.18;4.82;;;8.00;99.90;;;;;;5052628;28;20474;-71
2021/05/04 03:36:59;;;;;;;10.85;5.35;;;8.00;99.90;;;;;;5052320;28;20051;-71
2021/05/04 03:40:04;;;;;;;11.70;5.60;;;8.00;99.90;;;;;;5051401;28;20040;-72
2021/05/04 03:43:08;;;;;;;12.20;5.00;;;8.00;99.90;;;;;;5052275;28;20048;-71
2021/05/04 03:46:12;;;;;;;12.38;5.45;;;7.90;99.90;;;;;;5050859;28;20056;-71
2021/05/04 03:49:16;;;;;;;11.82;5.28;;;7.80;99.90;;;;;;5052024;28;20048;-71
2021/05/04 03:52:21;;;;;;;12.82;5.43;;;7.70;99.90;;;;;;5051452;28;20056;-71
2021/05/04 03:55:25;;;;;;;12.55;5.32;;;7.60;99.90;;;;;;5051379;28;20043;-71
2021/05/04 03:58:30;;;;;;;16.70;6.60;;;7.50;99.90;;;;;;5052129;28;20055;-71
2021/05/04 04:01:36;;;;;;;21.50;7.75;;;7.50;99.90;;;;;;5050806;28;20553;-71
2021/05/04 04:04:40;;;;;;;9.93;6.18;;;7.50;99.90;;;;;;5051833;28;20044;-70
2021/05/04 04:07:44;;;;;;;12.73;6.57;;;7.50;99.90;;;;;;5051546;28;20475;-72
2021/05/04 04:10:48;;;;;;;8.63;5.97;;;7.50;99.90;;;;;;5050948;28;20044;-72
2021/05/04 04:13:52;;;;;;;15.60;6.90;;;7.50;99.90;;;;;;5051617;28;20037;-72
2021/05/04 04:16:56;;;;;;;13.60;7.00;;;7.60;99.90;;;;;;5051177;28;20040;-72
2021/05/04 04:20:00;;;;;;;11.50;6.13;;;7.70;99.90;;;;;;5051235;28;20052;-72
2021/05/04 04:23:04;;;;;;;13.40;6.28;;;7.80;99.90;;;;;;5049969;28;20052;-72
2021/05/04 04:26:08;;;;;;;14.93;6.40;;;7.70;99.90;;;;;;5049275;28;20048;-72
2021/05/04 04:29:12;;;;;;;10.98;5.80;;;7.80;99.90;;;;;;5050809;28;20057;-72
2021/05/04 04:32:16;;;;;;;11.23;5.75;;;7.90;99.90;;;;;;5050647;28;20395;-72
2021/05/04 04:35:21;;;;;;;13.88;5.43;;;8.00;99.90;;;;;;5050883;28;20527;-72
2021/05/04 04:38:26;;;;;;;7.32;5.03;;;8.20;99.90;;;;;;5051446;28;20044;-72
2021/05/04 04:41:30;;;;;;;8.07;4.53;;;8.30;99.90;;;;;;5050238;28;20040;-71
2021/05/04 04:44:34;;;;;;;8.18;4.25;;;8.40;99.90;;;;;;5050249;28;20049;-72
2021/05/04 04:47:38;;;;;;;11.65;5.32;;;8.40;99.90;;;;;;5050615;28;20041;-70
2021/05/04 04:50:42;;;;;;;7.72;4.95;;;8.50;99.90;;;;;;5049028;28;20396;-72
2021/05/04 04:53:47;;;;;;;10.25;7.38;;;8.60;99.90;;;;;;5045552;28;20033;-71
2021/05/04 04:56:51;;;;;;;10.30;4.70;;;8.80;99.90;;;;;;5030902;28;20056;-72
2021/05/04 04:59:55;;;;;;;9.88;5.22;;;9.00;99.90;;;;;;5029994;28;20052;-72
2021/05/04 05:02:59;;;;;;;10.07;4.35;;;10.70;99.90;;;;;;5050686;28;20041;-72
2021/05/04 05:06:03;;;;;;;8.77;4.43;;;12.80;99.90;;;;;;5050105;28;20043;-72
2021/05/04 05:09:08;;;;;;;5.57;3.30;;;14.00;99.90;;;;;;5050482;28;20048;-72
2021/05/04 05:12:13;;;;;;;9.48;3.58;;;14.80;99.90;;;;;;5049838;28;20052;-72
2021/05/04 05:15:19;;;;;;;6.85;3.30;;;15.70;99.90;;;;;;5047156;28;20059;-72
2021/05/04 05:18:23;;;;;;;9.05;3.50;;;16.20;99.90;;;;;;5036705;28;20571;-70
2021/05/04 05:21:29;;;;;;;8.27;3.25;;;15.90;99.90;;;;;;5048738;28;20056;-72
2021/05/04 05:24:35;;;;;;;9.40;3.80;;;16.00;99.90;;;;;;5050106;28;20056;-72
2021/05/04 05:27:39;;;;;;;8.93;3.58;;;16.00;99.90;;;;;;5047651;28;20069;-72
2021/05/04 05:30:44;;;;;;;5.95;3.17;;;16.00;99.90;;;;;;5043486;28;20048;-72
2021/05/04 05:33:49;;;;;;;8.48;4.00;;;14.80;99.90;;;;;;5030261;28;20041;-72
2021/05/04 05:36:54;;;;;;;9.43;3.60;;;14.40;99.90;;;;;;5030855;28;20048;-72
2021/05/04 05:39:58;;;;;;;11.50;3.88;;;14.70;99.90;;;;;;5034574;28;20055;-72
2021/05/04 05:43:02;;;;;;;6.80;3.45;;;15.60;99.90;;;;;;5034206;28;20377;-72
2021/05/04 05:46:06;;;;;;;8.73;3.55;;;15.60;99.90;;;;;;5034540;28;20044;-72
2021/05/04 05:49:11;;;;;;;8.75;3.35;;;16.00;99.90;;;;;;5034277;28;20048;-73
2021/05/04 05:52:16;;;;;;;6.50;3.05;;;15.60;99.90;;;;;;5033746;28;20078;-72
2021/05/04 05:55:21;;;;;;;7.63;3.42;;;15.80;99.90;;;;;;5033483;28;20048;-71
2021/05/04 05:58:26;;;;;;;9.23;2.92;;;16.20;99.90;;;;;;5032263;28;20063;-72
2021/05/04 06:01:30;;;;;;;6.75;3.15;;;15.60;99.90;;;;;;5034325;28;20048;-72
2021/05/04 06:04:36;;;;;;;9.52;3.40;;;15.60;99.90;;;;;;5036053;28;20044;-72
2021/05/04 06:07:41;;;;;;;9.10;3.47;;;14.60;99.90;;;;;;5033824;28;20060;-72
2021/05/04 06:10:47;;;;;;;6.78;2.95;;;14.90;99.90;;;;;;5035663;28;20040;-72
2021/05/04 06:13:51;;;;;;;8.05;3.17;;;15.60;99.90;;;;;;5046472;28;20108;-71
2021/05/04 06:16:55;;;;;;;6.80;3.03;;;16.30;99.90;;;;;;5043426;28;20123;-72
2021/05/04 06:19:59;;;;;;;8.95;3.33;;;16.90;99.90;;;;;;5049251;28;20681;-72
2021/05/04 06:23:04;;;;;;;6.85;3.10;;;16.70;99.90;;;;;;5049766;28;20044;-72
2021/05/04 06:26:08;;;;;;;6.00;2.80;;;17.00;99.90;;;;;;5036517;28;20052;-72
2021/05/04 06:29:13;;;;;;;11.57;2.70;;;18.50;99.90;;;;;;5048053;28;20510;-72
2021/05/04 06:32:23;;;;;;;6.80;2.90;;;18.70;99.90;;;;;;5044292;28;20044;-71
2021/05/04 06:35:28;;;;;;;5.35;2.80;;;18.10;99.90;;;;;;5050715;28;20040;-71
2021/05/04 06:38:32;;;;;;;6.47;2.65;;;17.20;99.90;;;;;;5042495;28;20043;-71
2021/05/04 06:41:38;;;;;;;15.18;3.55;;;17.10;99.90;;;;;;5049398;28;20538;-71
2021/05/04 06:44:42;;;;;;;11.20;4.25;;;18.20;99.90;;;;;;5051107;28;20055;-71
2021/05/04 06:47:46;;;;;;;9.48;3.30;;;18.60;99.90;;;;;;5052367;28;20044;-71
2021/05/04 06:50:51;;;;;;;8.52;3.10;;;16.50;99.90;;;;;;5045875;28;20051;-72
2021/05/04 06:53:55;;;;;;;6.80;3.10;;;16.40;99.90;;;;;;5051072;28;20387;-71
2021/05/04 06:56:59;;;;;;;7.97;3.10;;;17.70;99.90;;;;;;5040149;28;20507;-73
2021/05/04 07:00:09;;;;;;;6.47;3.40;;;18.00;99.90;;;;;;5045733;28;20052;-71
2021/05/04 07:03:13;;;;;;;11.25;3.67;;;18.10;99.90;;;;;;5046860;28;20044;-72
2021/05/04 07:06:16;;;;;;;7.93;3.55;;;18.30;99.90;;;;;;5041241;28;20044;-71
2021/05/04 07:09:20;;;;;;;9.63;4.05;;;18.40;99.90;;;;;;5035260;28;20546;-72
2021/05/04 07:12:24;;;;;;;8.73;3.92;;;19.20;99.90;;;;;;5040624;28;20423;-71
2021/05/04 07:15:29;;;;;;;12.85;4.25;;;19.10;99.90;;;;;;5051468;28;20048;-72
2021/05/04 07:18:36;;;;;;;13.45;4.03;;;18.20;99.90;;;;;;5052311;28;20047;-72
2021/05/04 07:21:40;;;;;;;8.13;4.13;;;19.20;99.90;;;;;;5033311;28;20579;-72
2021/05/04 07:24:54;;;;;;;10.82;3.92;;;19.10;99.90;;;;;;5041742;28;20044;-72
2021/05/04 07:27:58;;;;;;;9.52;4.45;;;19.10;99.90;;;;;;5034154;28;20053;-73
2021/05/04 07:31:04;;;;;;;9.50;4.22;;;19.40;99.90;;;;;;5044923;28;20044;-71
2021/05/04 07:34:08;;;;;;;8.73;4.53;;;19.40;99.90;;;;;;5052032;28;20044;-72
2021/05/04 07:37:13;;;;;;;15.07;4.68;;;19.90;99.90;;;;;;5042971;28;20053;-72
2021/05/04 07:40:17;;;;;;;9.68;4.00;;;18.90;99.90;;;;;;5036123;28;20487;-72
2021/05/04 07:43:22;;;;;;;13.05;4.60;;;19.40;99.90;;;;;;5047111;28;20522;-72
2021/05/04 07:46:26;;;;;;;9.57;4.32;;;19.00;99.90;;;;;;5050228;28;20043;-71
2021/05/04 07:49:34;;;;;;;13.57;4.00;;;19.80;99.90;;;;;;5046509;28;20399;-72
2021/05/04 07:52:38;;;;;;;7.10;4.25;;;18.90;99.90;;;;;;5051156;28;20059;-72
2021/05/04 07:55:43;;;;;;;10.55;4.20;;;20.60;99.90;;;;;;5047565;28;20044;-72
2021/05/04 07:58:48;;;;;;;10.75;4.38;;;19.70;99.90;;;;;;5049534;28;20044;-72
2021/05/04 08:01:52;;;;;;;8.38;3.85;;;20.50;99.90;;;;;;5037519;28;20055;-72
2021/05/04 08:04:56;;;;;;;9.75;3.70;;;21.00;99.90;;;;;;5051827;28;20040;-71
2021/05/04 08:08:02;;;;;;;8.10;4.10;;;22.10;99.00;;;;;;5050888;28;20053;-72
2021/05/04 08:11:07;;;;;;;9.45;4.32;;;22.80;99.10;;;;;;5033856;28;20071;-72
2021/05/04 08:14:11;;;;;;;11.95;4.43;;;21.20;99.70;;;;;;5037437;28;20043;-72
2021/05/04 08:17:18;;;;;;;9.25;3.85;;;23.90;97.90;;;;;;5047533;28;20040;-71
2021/05/04 08:20:25;;;;;;;9.27;3.78;;;21.50;99.60;;;;;;5045481;28;20044;-71
2021/05/04 08:23:30;;;;;;;9.65;3.70;;;23.70;98.20;;;;;;5047824;28;20048;-73
2021/05/04 08:26:34;;;;;;;6.95;3.33;;;26.20;94.40;;;;;;5047992;28;20052;-72
2021/05/04 08:29:38;;;;;;;9.57;3.03;;;26.70;93.20;;;;;;5050585;28;20063;-73
2021/05/04 08:32:42;;;;;;;9.77;3.08;;;28.10;91.10;;;;;;5049806;28;20272;-72
2021/05/04 08:35:47;;;;;;;7.88;3.00;;;29.00;87.00;;;;;;5032068;28;20056;-72
2021/05/04 08:38:51;;;;;;;6.38;2.20;;;27.50;86.00;;;;;;5046333;28;20044;-73
2021/05/04 08:41:55;;;;;;;7.05;2.25;;;26.90;84.90;;;;;;5049522;28;20056;-72
2021/05/04 08:45:04;;;;;;;6.00;2.33;;;27.60;81.50;;;;;;5044333;28;20048;-73
2021/05/04 08:48:08;;;;;;;8.23;2.28;;;25.10;83.40;;;;;;5036505;28;20048;-71
2021/05/04 08:51:14;;;;;;;10.05;2.17;;;22.30;85.80;;;;;;5048247;28;20036;-69
2021/05/04 08:54:19;;;;;;;3.70;2.00;;;25.10;86.10;;;;;;5048204;28;20048;-72
2021/05/04 08:57:23;;;;;;;6.05;1.92;;;24.30;85.20;;;;;;5043962;28;20040;-71
2021/05/04 09:00:27;;;;;;;6.95;2.03;;;25.20;87.40;;;;;;5047638;28;20055;-71
2021/05/04 09:03:35;;;;;;;3.60;1.90;;;23.70;87.40;;;;;;5050573;28;20055;-72
2021/05/04 09:06:43;;;;;;;7.15;2.55;;;24.70;84.20;;;;;;5031018;28;20060;-71
2021/05/04 09:13:35;;;;;;;7.55;2.85;;;25.20;84.10;;;;;;5037985;28;20522;-69
2021/05/04 09:17:04;;;;;;;3.95;2.20;;;24.90;80.80;;;;;;5029806;28;20144;-73
2021/05/04 09:23:47;;;;;;;8.70;2.45;;;24.60;85.20;;;;;;5022712;28;20044;-71
2021/05/04 09:27:06;;;;;;;7.38;2.30;;;25.10;83.70;;;;;;5030456;28;20068;-72
2021/05/04 09:30:14;;;;;;;12.05;2.33;;;24.20;85.90;;;;;;5029526;28;20037;-69
2021/05/04 09:33:19;;;;;;;8.68;2.53;;;23.90;88.00;;;;;;5029448;28;20443;-73
2021/05/04 09:36:49;;;;;;;3.75;1.80;;;24.00;83.60;;;;;;5033421;28;20124;-69
2021/05/04 09:39:55;;;;;;;5.72;1.90;;;26.90;81.50;;;;;;5042035;28;20048;-72
2021/05/04 09:43:27;;;;;;;9.80;2.45;;;28.30;79.70;;;;;;5048889;28;20036;-72
2021/05/04 09:46:46;;;;;;;6.38;1.98;;;26.30;80.10;;;;;;5029263;28;20048;-73
2021/05/04 09:49:52;;;;;;;6.50;2.05;;;26.30;82.40;;;;;;5043624;28;20052;-69
2021/05/04 09:53:06;;;;;;;6.50;2.00;;;28.90;77.90;;;;;;5049371;28;20044;-72
2021/05/04 09:56:13;;;;;;;7.00;2.10;;;27.20;78.90;;;;;;5049724;28;20056;-75
2021/05/04 09:59:17;;;;;;;7.28;2.08;;;28.40;78.10;;;;;;5049340;28;20060;-74
2021/05/04 10:02:23;;;;;;;5.90;2.10;;;25.00;80.20;;;;;;5048820;28;20056;-73
2021/05/04 10:05:28;;;;;;;5.10;1.63;;;26.70;79.10;;;;;;5048942;28;20059;-74
2021/05/04 10:08:33;;;;;;;8.48;2.00;;;29.00;78.70;;;;;;5049787;28;20061;-71
2021/05/04 10:11:38;;;;;;;5.95;1.92;;;29.20;73.50;;;;;;5048287;28;20028;-73
2021/05/04 10:14:42;;;;;;;8.32;3.17;;;28.10;74.90;;;;;;5048571;28;20040;-74
2021/05/04 10:17:46;;;;;;;6.43;2.22;;;26.60;78.10;;;;;;5050259;28;20067;-72
2021/05/04 10:20:53;;;;;;;10.32;2.40;;;26.20;79.70;;;;;;5029665;28;20044;-71
2021/05/04 10:23:59;;;;;;;34.47;23.73;;;24.20;82.60;;;;;;5039187;28;20396;-74
2021/05/04 10:27:04;;;;;;;10.95;4.97;;;22.20;85.40;;;;;;5053386;28;20502;-75
2021/05/04 10:30:10;;;;;;;7.55;2.08;;;21.70;85.00;;;;;;5051863;28;20528;-70
2021/05/04 10:33:31;;;;;;;7.45;2.67;;;23.60;82.90;;;;;;5052090;28;20044;-69
2021/05/04 10:36:36;;;;;;;;;;;22.90;84.40;;;;;;5053980;28;20040;-74
2021/05/04 10:39:43;;;;;;;10.25;5.45;;;22.20;84.90;;;;;;5053030;28;19916;-74
2021/05/04 10:42:47;;;;;;;10.73;4.40;;;21.00;86.40;;;;;;5053233;28;20048;-73
2021/05/04 10:45:53;;;;;;;6.30;1.85;;;21.20;87.50;;;;;;5052543;28;20047;-73
2021/05/04 10:48:57;;;;;;;8.55;2.60;;;22.00;86.40;;;;;;5053242;28;20040;-72
2021/05/04 10:52:01;;;;;;;18.33;9.05;;;22.10;84.20;;;;;;5047743;28;20037;-73
2021/05/04 10:55:05;;;;;;;10.27;2.95;;;22.20;86.40;;;;;;5033207;28;20052;-74
2021/05/04 10:58:10;;;;;;;5.75;2.90;;;21.80;85.30;;;;;;5033166;28;20056;-73
2021/05/04 11:01:20;;;;;;;27.38;18.58;;;22.90;82.90;;;;;;5032886;28;20052;-73
2021/05/04 11:04:38;;;;;;;8.30;2.70;;;22.20;83.10;;;;;;5032503;28;20052;-73
2021/05/04 11:08:00;;;;;;;28.35;18.60;;;22.40;85.40;;;;;;5033474;28;20056;-74
2021/05/04 11:11:29;;;;;;;8.10;3.60;;;23.00;86.40;;;;;;5051525;28;20048;-75
2021/05/04 11:14:37;;;;;;;6.72;2.50;;;21.90;85.30;;;;;;5031750;28;20045;-73
2021/05/04 11:17:42;;;;;;;7.38;3.70;;;22.20;85.20;;;;;;5032569;28;20036;-73
2021/05/04 11:20:46;;;;;;;6.60;1.83;;;21.40;87.80;;;;;;5031984;28;20053;-75
2021/05/04 11:24:08;;;;;;;5.25;1.90;;;23.60;82.10;;;;;;5032668;28;20052;-71
2021/05/04 11:27:13;;;;;;;6.28;1.98;;;24.20;79.70;;;;;;5032481;28;20057;-69
2021/05/04 11:30:38;;;;;;;4.30;2.10;;;21.00;84.10;;;;;;5030534;28;20049;-73
2021/05/04 11:33:43;;;;;;;3.45;1.85;;;20.40;89.00;;;;;;5036807;28;20392;-73
2021/05/04 11:36:47;;;;;;;4.30;2.20;;;19.80;87.20;;;;;;5051971;28;20040;-74
2021/05/04 11:39:52;;;;;;;4.85;2.35;;;19.70;88.90;;;;;;5031733;28;20503;-69
2021/05/04 11:43:02;;;;;;;9.18;2.58;;;19.70;88.40;;;;;;5034758;28;20124;-73
2021/05/04 11:46:06;;;;;;;7.15;2.42;;;19.70;90.20;;;;;;5040698;28;20048;-73
2021/05/04 11:49:10;;;;;;;5.30;2.30;;;19.30;91.20;;;;;;5042480;28;20388;-71
2021/05/04 11:52:17;;;;;;;8.15;2.78;;;19.20;91.90;;;;;;5045317;28;20041;-67
2021/05/04 11:55:22;;;;;;;10.82;2.75;;;19.90;92.40;;;;;;5045425;28;20490;-71
2021/05/04 11:58:28;;;;;;;6.97;2.58;;;19.30;92.20;;;;;;5044958;28;20044;-70
2021/05/04 12:01:41;;;;;;;6.03;2.30;;;20.00;93.20;;;;;;5048567;28;20048;-74
2021/05/04 12:04:52;;;;;;;11.15;2.95;;;19.50;93.20;;;;;;5047351;28;20491;-75
2021/05/04 12:07:57;;;;;;;7.17;2.37;;;19.70;93.80;;;;;;5051189;28;20728;-73
2021/05/04 12:11:01;;;;;;;5.30;1.83;;;19.80;93.60;;;;;;5050161;28;20048;-73
2021/05/04 12:14:06;;;;;;;4.68;2.10;;;19.60;93.70;;;;;;5049506;28;20056;-74
2021/05/04 12:17:11;;;;;;;4.90;2.10;;;18.90;95.00;;;;;;5051244;28;20108;-73
2021/05/04 12:20:19;;;;;;;11.05;2.30;;;19.40;94.90;;;;;;5039443;28;20040;-72
2021/05/04 12:23:33;;;;;;;5.70;2.30;;;19.20;95.00;;;;;;5050929;28;20052;-72
2021/05/04 12:26:39;;;;;;;8.38;2.05;;;18.80;94.90;;;;;;5050652;28;20052;-71
2021/05/04 12:29:43;;;;;;;3.95;2.38;;;19.30;95.90;;;;;;5049426;28;20059;-70
2021/05/04 12:32:49;;;;;;;5.68;2.05;;;19.80;93.90;;;;;;5050767;28;20087;-73
2021/05/04 12:36:42;;;;;;;5.65;1.92;;;19.30;94.80;;;;;;5050512;28;20044;-71
2021/05/04 12:39:24;;;;;;;6.30;1.90;;;18.40;96.10;;;;;;5049775;28;20052;-71
2021/05/04 12:42:28;;;;;;;8.90;2.10;;;18.00;96.90;;;;;;5050769;28;20051;-67
2021/05/04 12:45:35;;;;;;;5.03;1.83;;;18.40;97.50;;;;;;5037841;28;20056;-70
2021/05/04 12:48:41;;;;;;;8.07;1.70;;;18.50;96.90;;;;;;5050693;28;20048;-74
2021/05/04 12:51:56;;;;;;;4.45;1.40;;;18.10;97.80;;;;;;5047082;28;20487;-73
2021/05/04 12:55:07;;;;;;;3.22;1.75;;;18.60;97.50;;;;;;5050165;28;20056;-71
2021/05/04 12:58:13;;;;;;;5.70;1.50;;;18.20;98.50;;;;;;5051200;28;20068;-73
2021/05/04 13:01:17;;;;;;;5.05;2.22;;;18.30;98.60;;;;;;5049240;28;20060;-74
2021/05/04 13:04:49;;;;;;;8.85;2.20;;;18.40;97.90;;;;;;5050678;28;20044;-70
2021/05/04 13:08:09;;;;;;;7.00;2.40;;;18.80;99.20;;;;;;5050371;28;20043;-69
2021/05/04 13:11:16;;;;;;;6.15;1.92;;;18.20;98.30;;;;;;5029498;28;20052;-68
2021/05/04 13:31:23;;;;;;;11.07;3.10;;;17.70;99.90;;;;;;5028178;28;20044;-75
2021/05/04 13:37:46;;;;;;;6.72;2.00;;;18.40;99.90;;;;;;5030560;28;20044;-74
2021/05/04 13:47:37;;;;;;;6.30;2.10;;;18.10;99.90;;;;;;5030731;28;20418;-73
2021/05/04 13:50:41;;;;;;;5.80;2.05;;;18.20;99.90;;;;;;5029741;28;20052;-72
2021/05/04 13:53:46;;;;;;;8.02;1.77;;;18.70;99.90;;;;;;5048825;28;20490;-73
2021/05/04 13:56:49;;;;;;;4.78;1.75;;;18.00;99.90;;;;;;5049673;28;20044;-71
2021/05/04 13:59:58;;;;;;;8.43;2.47;;;18.20;99.90;;;;;;5052665;28;20668;-70
2021/05/04 14:06:39;;;;;;;;;;;18.80;99.90;;;;;;5053890;28;20044;-70
2021/05/04 14:26:20;;;;;;;6.68;1.63;;;19.30;99.90;;;;;;5052980;28;20056;-69
2021/05/04 14:29:25;;;;;;;5.00;2.00;;;19.60;99.90;;;;;;5053073;28;20056;-75
2021/05/04 14:32:29;;;;;;;8.20;2.10;;;17.90;99.90;;;;;;5053101;28;20036;-73
2021/05/04 14:35:42;;;;;;;8.45;2.63;;;18.30;99.90;;;;;;5053183;28;20055;-74
2021/05/04 14:59:22;;;;;;;4.68;1.50;;;19.60;96.20;;;;;;5040074;28;20052;-72
2021/05/04 15:02:06;;;;;;;5.28;2.00;;;19.70;94.80;;;;;;5048009;28;20040;-73
2021/05/04 15:05:13;;;;;;;4.85;1.60;;;20.10;93.10;;;;;;5045107;28;20044;-73
2021/05/04 15:08:18;;;;;;;4.68;1.70;;;19.00;93.90;;;;;;5050628;28;20039;-71
2021/05/04 15:11:22;;;;;;;3.83;1.50;;;19.20;94.40;;;;;;5042151;28;20052;-73
2021/05/04 15:14:37;;;;;;;4.85;1.92;;;19.40;93.60;;;;;;5049884;28;20058;-73
2021/05/04 15:18:06;;;;;;;6.15;1.70;;;19.70;93.90;;;;;;5041474;28;20506;-72
2021/05/04 15:24:25;;;;;;;3.45;2.00;;;19.80;91.60;;;;;;5043737;28;20841;-73
2021/05/04 15:27:29;;;;;;;5.30;2.15;;;19.20;91.60;;;;;;5050351;28;20060;-68
2021/05/04 15:30:33;;;;;;;3.65;1.73;;;19.20;93.70;;;;;;5044876;28;20048;-73
2021/05/04 15:33:42;;;;;;;8.55;2.08;;;18.80;94.10;;;;;;5045675;28;20052;-73
2021/05/04 15:36:48;;;;;;;7.30;1.70;;;19.30;94.40;;;;;;5052297;28;20052;-73
2021/05/04 15:39:58;;;;;;;2.45;1.50;;;19.20;94.10;;;;;;5031682;28;20045;-72
2021/05/04 15:43:04;;;;;;;4.53;1.83;;;19.40;93.50;;;;;;5042204;28;20048;-73
2021/05/04 15:46:21;;;;;;;3.95;1.50;;;19.90;93.50;;;;;;5050696;28;20356;-70
2021/05/04 15:49:32;;;;;;;5.47;1.77;;;19.50;93.60;;;;;;5031881;28;20718;-72
2021/05/04 16:11:58;;;;;;;5.85;2.05;;;18.00;99.40;;;;;;5029707;28;20657;-72
2021/05/04 16:15:03;;;;;;;6.32;2.22;;;18.20;99.80;;;;;;5046638;28;20055;-74
2021/05/04 16:18:07;;;;;;;6.63;2.20;;;17.80;99.90;;;;;;5050456;28;20048;-73
2021/05/04 16:21:29;;;;;;;6.10;2.28;;;18.00;99.90;;;;;;5050712;28;20052;-73
2021/05/04 16:24:39;;;;;;;10.63;3.83;;;18.10;99.90;;;;;;5050902;28;20051;-73
2021/05/04 16:28:01;;;;;;;7.78;2.33;;;17.80;99.90;;;;;;5050040;28;20055;-74
2021/05/04 16:31:05;;;;;;;7.70;2.22;;;17.60;99.90;;;;;;5048993;28;20103;-73
2021/05/04 16:34:09;;;;;;;6.00;2.15;;;17.60;99.90;;;;;;5030970;28;20040;-73
2021/05/04 16:37:14;;;;;;;4.25;1.90;;;17.60;99.90;;;;;;5043432;28;20035;-73
2021/05/04 16:40:25;;;;;;;6.57;2.25;;;18.00;99.90;;;;;;5022629;28;20056;-73
2021/05/04 16:43:30;;;;;;;6.32;2.00;;;17.60;99.90;;;;;;5050988;28;20051;-74
2021/05/04 16:49:58;;;;;;;4.60;2.60;;;17.40;99.90;;;;;;5049785;28;20067;-73
2021/05/04 16:53:04;;;;;;;9.38;2.63;;;17.20;99.90;;;;;;5050803;28;20035;-73
2021/05/04 16:56:08;;;;;;;4.15;1.95;;;17.20;99.90;;;;;;5030321;28;20052;-73
2021/05/04 16:59:12;;;;;;;5.53;2.30;;;17.10;99.90;;;;;;5042675;28;20044;-72
2021/05/04 17:02:16;;;;;;;7.28;2.10;;;17.20;99.90;;;;;;5036224;28;20060;-73
2021/05/04 17:05:21;;;;;;;5.97;2.30;;;17.00;99.90;;;;;;5034647;28;20044;-72
2021/05/04 17:08:38;;;;;;;6.05;2.42;;;17.20;99.90;;;;;;5049222;28;20047;-73
2021/05/04 17:11:43;;;;;;;6.55;2.80;;;16.90;99.90;;;;;;5029139;28;20049;-72
2021/05/04 17:14:47;;;;;;;6.88;2.45;;;16.70;99.90;;;;;;5040864;28;20051;-72
2021/05/04 17:17:51;;;;;;;6.00;2.85;;;16.60;99.90;;;;;;5049175;28;20048;-72
2021/05/04 17:20:55;;;;;;;5.97;2.38;;;16.50;99.90;;;;;;5045033;28;20056;-72
2021/05/04 17:23:59;;;;;;;5.50;2.22;;;16.30;99.90;;;;;;5050184;28;20056;-72
2021/05/04 17:27:03;;;;;;;6.50;2.50;;;16.30;99.90;;;;;;5049135;28;20525;-74
2021/05/04 17:30:09;;;;;;;5.55;1.95;;;16.30;99.90;;;;;;5044710;28;20057;-73
2021/05/04 17:33:13;;;;;;;5.72;2.15;;;16.40;99.90;;;;;;5031475;28;20388;-73
2021/05/04 17:36:19;;;;;;;6.85;2.80;;;16.20;99.90;;;;;;5034020;28;20056;-74
2021/05/04 17:39:23;;;;;;;7.97;3.15;;;16.20;99.90;;;;;;5052353;28;20454;-74
2021/05/04 17:42:27;;;;;;;8.80;2.72;;;15.90;99.90;;;;;;5053828;28;20036;-73
2021/05/04 17:45:31;;;;;;;6.93;2.70;;;15.90;99.90;;;;;;5052176;28;20064;-73
2021/05/04 17:48:36;;;;;;;4.78;2.67;;;15.70;99.90;;;;;;5053190;28;20367;-74
2021/05/04 17:51:41;;;;;;;4.00;2.05;;;15.70;99.90;;;;;;5053095;28;20052;-72